Time;durP1;ratioP1;P1;durP2;ratioP2;P2;SDS_P1;SDS_P2;PMS_P1;PMS_P2;Temp;Humidity;BMP_temperature;BMP_pressure;BME280_temperature;BME280_humidity;BME280_pressure;Samples;Min_cycle;Max_cycle;Signal;HPM_P1;HPM_P2
2022/11/17 00:08:13;;;;;;;5.72;1.55;;;9.90;99.90;;;;;;20620869;28;20510;-41
2022/11/17 00:28:34;;;;;;;2.13;0.63;;;9.90;99.90;;;;;;20635348;28;20561;-40
2022/11/17 00:38:35;;;;;;;3.05;1.30;;;9.90;99.90;;;;;;20627403;28;20402;-41
2022/11/17 00:48:36;;;;;;;2.40;0.95;;;10.00;99.90;;;;;;20623772;28;20437;-41
2022/11/17 00:58:37;;;;;;;4.13;1.65;;;10.00;99.90;;;;;;20636127;28;20046;-40
2022/11/17 01:08:39;;;;;;;2.47;1.08;;;10.10;99.90;;;;;;20634429;28;20082;-41
2022/11/17 01:18:41;;;;;;;2.80;1.05;;;10.10;99.90;;;;;;20590565;28;20355;-41
2022/11/17 01:28:42;;;;;;;2.67;0.85;;;10.20;99.90;;;;;;20626574;28;20124;-41
2022/11/17 01:38:44;;;;;;;2.88;0.80;;;10.20;99.90;;;;;;20627317;28;20917;-42
2022/11/17 01:48:47;;;;;;;2.30;1.20;;;10.20;99.90;;;;;;20613882;28;21810;-42
2022/11/17 01:58:53;;;;;;;1.52;0.60;;;10.20;99.90;;;;;;20627744;28;20339;-42
2022/11/17 02:08:56;;;;;;;3.33;1.45;;;10.30;99.90;;;;;;20611442;28;20096;-42
2022/11/17 02:18:57;;;;;;;9.60;1.77;;;10.30;99.90;;;;;;20608845;28;20701;-42
2022/11/17 02:29:12;;;;;;;3.03;1.10;;;10.40;99.90;;;;;;20622374;28;20112;-41
2022/11/17 02:39:35;;;;;;;2.70;1.20;;;10.30;99.90;;;;;;20602202;28;20176;-41
2022/11/17 02:49:39;;;;;;;2.53;0.90;;;10.40;99.90;;;;;;20625149;28;20177;-41
2022/11/17 02:59:45;;;;;;;2.45;1.23;;;10.40;99.90;;;;;;20609968;28;20097;-41
2022/11/17 03:10:07;;;;;;;3.40;1.25;;;10.50;99.90;;;;;;20621880;28;20904;-41
2022/11/17 03:20:23;;;;;;;2.22;1.10;;;10.50;99.90;;;;;;20606325;28;20199;-41
2022/11/17 03:30:25;;;;;;;2.33;0.90;;;10.60;99.90;;;;;;20610488;28;20542;-40
2022/11/17 03:40:29;;;;;;;0.98;0.60;;;10.60;99.90;;;;;;20617142;28;20088;-40
2022/11/17 03:50:39;;;;;;;1.38;0.73;;;10.70;99.90;;;;;;20609991;28;20070;-40
2022/11/17 04:00:41;;;;;;;1.17;0.40;;;10.80;99.90;;;;;;20607758;28;21572;-40
2022/11/17 04:21:02;;;;;;;3.97;1.02;;;10.80;99.90;;;;;;20593054;28;20794;-40
2022/11/17 04:31:18;;;;;;;1.00;0.43;;;11.00;99.90;;;;;;20606212;28;20042;-40
2022/11/17 04:51:41;;;;;;;0.73;0.20;;;10.90;99.90;;;;;;20606071;28;20161;-41
2022/11/17 05:01:42;;;;;;;1.27;0.43;;;10.80;99.90;;;;;;20611742;28;20070;-40
2022/11/17 05:23:52;;;;;;;0.73;0.30;;;10.40;99.90;;;;;;20627809;28;20877;-41
2022/11/17 05:32:25;;;;;;;0.38;0.10;;;10.40;99.90;;;;;;20633486;28;20525;-42
2022/11/17 05:42:26;;;;;;;0.80;0.30;;;10.40;99.90;;;;;;20631391;28;20125;-41
2022/11/17 05:52:27;;;;;;;1.67;0.50;;;10.40;99.90;;;;;;20619474;28;20041;-42
2022/11/17 06:02:37;;;;;;;5.18;1.27;;;10.40;99.90;;;;;;20622279;28;20042;-41
2022/11/17 06:12:38;;;;;;;1.80;1.05;;;10.40;99.90;;;;;;20611246;28;20503;-41
2022/11/17 06:22:39;;;;;;;1.73;1.08;;;10.50;99.90;;;;;;20608412;28;20413;-42
2022/11/17 06:32:42;;;;;;;1.83;0.85;;;10.50;99.90;;;;;;20603648;28;20092;-41
2022/11/17 06:53:07;;;;;;;2.83;1.00;;;10.50;99.90;;;;;;20601925;28;20759;-41
2022/11/17 07:03:09;;;;;;;1.67;0.80;;;10.60;99.90;;;;;;20623040;28;20078;-42
2022/11/17 07:13:10;;;;;;;2.50;1.50;;;10.60;99.90;;;;;;20617712;28;20074;-41
2022/11/17 07:23:12;;;;;;;2.53;0.98;;;10.60;99.90;;;;;;20622597;28;20043;-41
2022/11/17 07:33:13;;;;;;;2.80;1.02;;;10.50;99.90;;;;;;20627125;28;20148;-41
2022/11/17 07:43:14;;;;;;;1.38;0.50;;;10.40;99.90;;;;;;20619552;28;20109;-40
2022/11/17 07:53:15;;;;;;;4.00;1.55;;;10.40;99.90;;;;;;20622964;28;20065;-40
2022/11/17 08:03:16;;;;;;;4.53;1.63;;;10.40;99.90;;;;;;20623570;28;20058;-40
2022/11/17 08:13:17;;;;;;;2.95;0.77;;;10.30;99.90;;;;;;20630757;28;20693;-41
2022/11/17 08:23:18;;;;;;;2.00;0.70;;;10.20;99.90;;;;;;20619880;28;20506;-40
2022/11/17 08:33:19;;;;;;;2.65;1.20;;;10.10;99.90;;;;;;20622949;28;20050;-41
2022/11/17 08:43:20;;;;;;;1.10;0.50;;;10.10;99.90;;;;;;20645807;28;20124;-41
2022/11/17 08:53:22;;;;;;;1.95;0.75;;;10.10;99.90;;;;;;20655406;28;20558;-40
2022/11/17 09:03:23;;;;;;;1.27;0.52;;;10.10;99.90;;;;;;20646040;28;20088;-40
2022/11/17 09:13:24;;;;;;;3.25;0.40;;;10.10;99.90;;;;;;20658851;28;20273;-41
2022/11/17 09:23:25;;;;;;;1.92;0.63;;;10.10;99.90;;;;;;20649460;28;20185;-40
2022/11/17 09:33:27;;;;;;;1.10;0.57;;;10.00;99.90;;;;;;20653427;28;20054;-40
2022/11/17 09:43:30;;;;;;;0.47;0.30;;;10.10;99.90;;;;;;20633239;28;20092;-41
2022/11/17 09:53:34;;;;;;;6.22;1.15;;;10.00;99.90;;;;;;20635558;28;20089;-40
2022/11/17 10:03:35;;;;;;;8.20;0.95;;;10.10;99.90;;;;;;20635907;28;20160;-40
2022/11/17 10:13:37;;;;;;;3.10;0.60;;;10.10;99.90;;;;;;20628345;28;20499;-40
2022/11/17 10:23:42;;;;;;;1.30;0.47;;;10.10;99.90;;;;;;20633893;28;20125;-40
2022/11/17 10:33:48;;;;;;;2.05;0.55;;;10.00;99.90;;;;;;20630298;28;20034;-40
2022/11/17 10:44:02;;;;;;;3.55;0.82;;;10.00;99.90;;;;;;20644997;28;20858;-40
2022/11/17 10:54:15;;;;;;;1.23;0.65;;;10.00;99.90;;;;;;20636547;28;20103;-39
2022/11/17 11:04:38;;;;;;;3.00;1.40;;;10.00;99.90;;;;;;20615734;28;20526;-40
2022/11/17 11:14:47;;;;;;;2.55;1.17;;;10.00;99.90;;;;;;20638030;28;20073;-40
2022/11/17 11:25:23;;;;;;;2.67;0.82;;;10.00;99.90;;;;;;20629200;28;20256;-39
2022/11/17 11:35:50;;;;;;;2.03;0.90;;;10.00;99.90;;;;;;20635695;28;20206;-40
2022/11/17 11:46:12;;;;;;;1.10;0.40;;;9.90;99.90;;;;;;20628404;28;20665;-39
2022/11/17 11:56:18;;;;;;;3.38;1.33;;;9.90;99.90;;;;;;20626913;28;20538;-41
2022/11/17 12:06:40;;;;;;;3.38;0.95;;;9.90;99.90;;;;;;20620951;28;20096;-40
2022/11/17 12:16:43;;;;;;;1.60;1.02;;;9.80;99.90;;;;;;20623694;28;20051;-40
2022/11/17 12:26:44;;;;;;;2.85;0.95;;;9.90;99.90;;;;;;20635503;28;20075;-40
2022/11/17 12:37:20;;;;;;;4.72;0.80;;;9.90;99.90;;;;;;20604841;28;21739;-40
2022/11/17 12:47:24;;;;;;;1.35;0.60;;;9.90;99.90;;;;;;20609474;28;20522;-40
2022/11/17 12:57:30;;;;;;;2.88;1.30;;;9.90;99.90;;;;;;20618076;28;20054;-40
2022/11/17 13:07:31;;;;;;;1.37;0.63;;;9.90;99.90;;;;;;20600586;28;20065;-40
2022/11/17 13:17:41;;;;;;;1.25;0.68;;;9.90;99.90;;;;;;20601717;28;20047;-40
2022/11/17 13:27:43;;;;;;;1.88;0.57;;;9.80;99.90;;;;;;20613548;28;20540;-40
2022/11/17 13:37:45;;;;;;;1.65;0.60;;;9.80;99.90;;;;;;20614813;28;20078;-40
2022/11/17 13:47:47;;;;;;;6.35;1.70;;;9.80;99.90;;;;;;20616942;28;20508;-40
2022/11/17 13:57:56;;;;;;;0.93;0.30;;;9.80;99.90;;;;;;20614872;28;20078;-40
2022/11/17 14:08:09;;;;;;;4.25;1.15;;;9.80;99.90;;;;;;20620883;28;20120;-41
2022/11/17 14:18:27;;;;;;;1.05;0.57;;;9.90;99.90;;;;;;20620874;28;20050;-41
2022/11/17 14:28:28;;;;;;;1.02;0.52;;;10.00;99.90;;;;;;20620268;28;20042;-41
2022/11/17 14:38:29;;;;;;;1.55;0.50;;;10.10;99.90;;;;;;20618836;28;20507;-40
2022/11/17 14:48:30;;;;;;;2.00;1.15;;;10.20;99.90;;;;;;20597090;28;20497;-40
2022/11/17 14:58:31;;;;;;;1.05;0.40;;;10.50;99.90;;;;;;20619327;28;20044;-40
2022/11/17 15:08:32;;;;;;;8.52;1.88;;;10.50;99.90;;;;;;20599398;28;20053;-39
2022/11/17 15:18:33;;;;;;;5.50;1.40;;;10.70;99.90;;;;;;20604366;28;20049;-40
2022/11/17 15:28:34;;;;;;;2.30;0.70;;;10.70;99.90;;;;;;20614558;28;20049;-39
2022/11/17 15:38:37;;;;;;;2.47;0.80;;;10.80;99.90;;;;;;20602293;28;20470;-39
2022/11/17 15:48:41;;;;;;;1.15;0.45;;;10.80;99.90;;;;;;20600901;28;20058;-39
2022/11/17 15:58:43;;;;;;;1.08;0.40;;;10.80;99.90;;;;;;20619239;28;20150;-40
2022/11/17 16:08:44;;;;;;;1.38;0.35;;;10.70;99.90;;;;;;20609632;28;20042;-40
2022/11/17 16:18:45;;;;;;;0.82;0.50;;;10.70;99.90;;;;;;20605060;28;21916;-40
2022/11/17 16:28:47;;;;;;;1.15;0.68;;;10.70;99.90;;;;;;20608820;28;20041;-39
2022/11/17 16:38:55;;;;;;;3.22;0.47;;;10.70;99.90;;;;;;20615963;28;20086;-40
2022/11/17 16:49:02;;;;;;;2.00;0.70;;;10.70;99.90;;;;;;20599274;28;20210;-39
2022/11/17 16:59:03;;;;;;;4.97;1.20;;;10.70;99.90;;;;;;20604218;28;20518;-39
2022/11/17 17:09:06;;;;;;;3.22;0.93;;;10.80;99.90;;;;;;20582390;28;20555;-40
2022/11/17 17:19:09;;;;;;;2.55;0.98;;;10.80;99.90;;;;;;20583311;28;20447;-39
2022/11/17 17:29:11;;;;;;;0.85;0.28;;;10.80;99.90;;;;;;20580498;28;20126;-39
2022/11/17 17:39:14;;;;;;;2.30;0.60;;;10.80;99.90;;;;;;20591913;28;20046;-40
2022/11/17 17:49:17;;;;;;;1.23;0.40;;;10.80;99.90;;;;;;20608965;28;20571;-40
2022/11/17 17:59:18;;;;;;;2.58;0.85;;;10.80;99.90;;;;;;20594370;28;20050;-40
2022/11/17 18:09:19;;;;;;;1.88;0.75;;;10.80;99.90;;;;;;20592506;28;20133;-40
2022/11/17 18:19:21;;;;;;;2.95;0.90;;;10.70;99.90;;;;;;20592321;28;20498;-40
2022/11/17 18:29:22;;;;;;;1.35;0.93;;;10.70;99.90;;;;;;20597987;28;20045;-40
2022/11/17 18:39:23;;;;;;;1.20;0.50;;;10.60;99.90;;;;;;20596125;28;20973;-40
2022/11/17 18:49:24;;;;;;;2.10;0.70;;;10.60;99.90;;;;;;20596511;28;20077;-40
2022/11/17 18:59:26;;;;;;;2.08;0.50;;;10.50;99.90;;;;;;20605212;28;20050;-40
2022/11/17 19:09:27;;;;;;;1.42;0.40;;;10.50;99.90;;;;;;20593457;28;20042;-40
2022/11/17 19:19:28;;;;;;;4.03;1.13;;;10.30;99.90;;;;;;20582775;28;20111;-40
2022/11/17 19:29:29;;;;;;;2.58;0.90;;;10.20;99.90;;;;;;20592802;28;20137;-40
2022/11/17 19:39:30;;;;;;;1.33;0.40;;;10.20;99.90;;;;;;20583768;28;20460;-40
2022/11/17 19:49:31;;;;;;;4.22;1.95;;;10.20;99.90;;;;;;20585310;28;20480;-40
2022/11/17 19:59:32;;;;;;;2.50;1.00;;;10.10;99.90;;;;;;20584740;28;20096;-40
2022/11/17 20:09:33;;;;;;;1.73;0.52;;;10.10;99.90;;;;;;20578970;28;20261;-40
2022/11/17 20:19:34;;;;;;;2.28;1.10;;;10.00;99.90;;;;;;20587374;28;20085;-40
2022/11/17 20:29:35;;;;;;;1.88;0.60;;;9.90;99.90;;;;;;20594136;28;20161;-40
2022/11/17 20:39:35;;;;;;;2.45;0.70;;;9.90;99.90;;;;;;20611372;28;20142;-40
2022/11/17 20:49:37;;;;;;;3.13;1.20;;;9.90;99.90;;;;;;20621797;28;20038;-40
2022/11/17 20:59:37;;;;;;;7.45;1.77;;;9.90;99.90;;;;;;20607672;28;20237;-40
2022/11/17 21:09:39;;;;;;;1.42;0.63;;;9.90;99.90;;;;;;20585784;28;20066;-41
2022/11/17 21:19:39;;;;;;;0.88;0.50;;;9.90;99.90;;;;;;20586484;28;20096;-40
2022/11/17 21:29:40;;;;;;;4.95;0.80;;;9.70;99.90;;;;;;20624784;28;20065;-40
2022/11/17 21:39:41;;;;;;;2.97;1.13;;;9.60;99.90;;;;;;20627233;28;20513;-41
2022/11/17 21:49:42;;;;;;;2.35;0.75;;;9.50;99.90;;;;;;20635187;28;20042;-41
2022/11/17 21:59:45;;;;;;;0.90;0.40;;;9.50;99.90;;;;;;20630684;28;20052;-40
2022/11/17 22:09:46;;;;;;;1.63;1.00;;;9.50;99.90;;;;;;20637767;28;20997;-41
2022/11/17 22:19:47;;;;;;;1.48;0.70;;;9.40;99.90;;;;;;20636693;28;20042;-40
2022/11/17 22:29:49;;;;;;;2.60;0.60;;;9.40;99.90;;;;;;20650030;28;20237;-40
2022/11/17 22:39:50;;;;;;;1.40;0.77;;;9.30;99.90;;;;;;20634927;28;20053;-40
2022/11/17 22:49:51;;;;;;;1.75;0.70;;;9.20;99.90;;;;;;20624176;28;20035;-40
2022/11/17 22:59:52;;;;;;;2.25;1.02;;;9.10;99.90;;;;;;20627222;28;20519;-40
2022/11/17 23:09:53;;;;;;;2.92;1.08;;;9.00;99.90;;;;;;20625252;28;20035;-41
2022/11/17 23:19:54;;;;;;;2.13;0.68;;;8.90;99.90;;;;;;20612927;28;20391;-41
2022/11/17 23:29:55;;;;;;;2.33;1.02;;;8.90;99.90;;;;;;20612559;28;20475;-40
2022/11/17 23:39:56;;;;;;;3.50;1.70;;;8.80;99.90;;;;;;20606922;28;20042;-40
2022/11/17 23:49:57;;;;;;;2.17;1.02;;;8.80;99.90;;;;;;20593529;28;20077;-41
2022/11/17 23:59:58;;;;;;;1.50;0.52;;;8.80;99.90;;;;;;20610048;28;20057;-40
